createdAt,value
2022-12-31T00:00:48.731Z,90.94
2022-12-31T00:01:48.998Z,90.94
2022-12-31T00:02:49.335Z,90.94
2022-12-31T00:03:50.465Z,90.94
2022-12-31T00:04:49.783Z,90.94
2022-12-31T00:05:50.029Z,90.94
2022-12-31T00:06:50.240Z,90.94
2022-12-31T00:07:50.581Z,90.83
2022-12-31T00:08:51.125Z,90.83
2022-12-31T00:09:51.178Z,90.83
2022-12-31T00:10:51.550Z,90.73
2022-12-31T00:11:51.781Z,90.73
2022-12-31T00:12:52.011Z,90.83
2022-12-31T00:13:52.371Z,90.83
2022-12-31T00:14:52.636Z,90.73
2022-12-31T00:15:52.864Z,90.73
2022-12-31T00:16:53.150Z,90.83
2022-12-31T00:17:53.379Z,90.83
2022-12-31T00:18:53.624Z,90.83
2022-12-31T00:19:53.844Z,90.83
2022-12-31T00:20:54.092Z,90.80
2022-12-31T00:21:54.303Z,90.83
2022-12-31T00:22:54.661Z,90.80
2022-12-31T00:23:55.012Z,90.69
2022-12-31T00:24:55.283Z,90.69
2022-12-31T00:25:55.537Z,90.69
2022-12-31T00:26:55.756Z,90.59
2022-12-31T00:27:56.112Z,90.48
2022-12-31T00:28:56.360Z,90.48
2022-12-31T00:30:02.453Z,90.59
2022-12-31T00:30:57.865Z,90.59
2022-12-31T00:31:57.177Z,90.48
2022-12-31T00:32:57.409Z,90.48
2022-12-31T00:33:57.646Z,90.38
2022-12-31T00:34:57.903Z,90.38
2022-12-31T00:35:58.134Z,90.48
2022-12-31T00:36:58.358Z,90.38
2022-12-31T00:37:58.593Z,90.38
2022-12-31T00:38:58.824Z,90.38
2022-12-31T00:39:59.077Z,90.38
2022-12-31T00:40:59.341Z,90.38
2022-12-31T00:41:59.578Z,90.38
2022-12-31T00:42:59.818Z,90.48
2022-12-31T00:44:00.117Z,90.48
2022-12-31T00:45:00.379Z,90.48
2022-12-31T00:46:00.668Z,90.48
2022-12-31T00:47:00.905Z,90.59
2022-12-31T00:48:01.149Z,90.59
2022-12-31T00:49:01.464Z,90.59
2022-12-31T00:50:01.708Z,90.59
2022-12-31T00:51:01.974Z,90.59
2022-12-31T00:52:02.230Z,90.59
2022-12-31T00:53:02.479Z,90.59
2022-12-31T00:54:02.730Z,90.59
2022-12-31T00:55:02.980Z,90.59
2022-12-31T00:56:03.267Z,90.55
2022-12-31T00:57:03.526Z,90.48
2022-12-31T00:58:03.782Z,90.44
2022-12-31T00:59:04.050Z,90.44
2022-12-31T01:00:04.301Z,90.44
2022-12-31T01:01:04.712Z,90.44
2022-12-31T01:02:04.920Z,90.44
2022-12-31T01:03:05.266Z,90.44
2022-12-31T01:04:05.318Z,90.34
2022-12-31T01:05:05.574Z,90.34
2022-12-31T01:06:05.873Z,90.34
2022-12-31T01:07:06.141Z,90.34
2022-12-31T01:08:06.398Z,90.34
2022-12-31T01:09:06.721Z,90.24
2022-12-31T01:10:06.983Z,90.24
2022-12-31T01:11:07.285Z,90.24
2022-12-31T01:12:07.563Z,90.24
2022-12-31T01:13:07.858Z,90.24
2022-12-31T01:14:08.121Z,90.14
2022-12-31T01:15:08.413Z,90.24
2022-12-31T01:16:08.766Z,90.24
2022-12-31T01:17:08.964Z,90.14
2022-12-31T01:18:09.255Z,90.14
2022-12-31T01:19:09.584Z,90.14
2022-12-31T01:20:09.889Z,90.14
2022-12-31T01:21:10.165Z,90.03
2022-12-31T01:22:10.472Z,90.03
2022-12-31T01:23:10.716Z,89.93
2022-12-31T01:24:10.999Z,89.93
2022-12-31T01:25:11.298Z,89.93
2022-12-31T01:26:11.624Z,89.93
2022-12-31T01:27:11.898Z,89.93
2022-12-31T01:28:12.257Z,89.83
2022-12-31T01:29:12.421Z,89.83
2022-12-31T01:30:12.724Z,89.93
2022-12-31T01:31:13.123Z,89.93
2022-12-31T01:32:13.231Z,89.93
2022-12-31T01:33:13.540Z,89.93
2022-12-31T01:34:13.853Z,89.93
2022-12-31T01:35:14.108Z,89.83
2022-12-31T01:36:14.434Z,89.93
2022-12-31T01:37:14.748Z,89.93
2022-12-31T01:38:15.069Z,89.93
2022-12-31T01:39:15.361Z,89.93
2022-12-31T01:40:15.629Z,89.93
2022-12-31T01:41:15.911Z,89.93
2022-12-31T01:42:16.192Z,89.93
2022-12-31T01:43:16.493Z,90.03
2022-12-31T01:44:16.771Z,90.03
2022-12-31T01:45:17.044Z,90.03
2022-12-31T01:46:17.417Z,90.14
2022-12-31T01:47:17.609Z,90.14
2022-12-31T01:48:17.884Z,90.14
2022-12-31T01:49:18.182Z,90.14
2022-12-31T01:50:18.464Z,90.14
2022-12-31T01:51:18.756Z,90.24
2022-12-31T01:52:19.027Z,90.24
2022-12-31T01:53:19.296Z,90.24
2022-12-31T01:54:19.571Z,90.24
2022-12-31T01:55:19.848Z,90.24
2022-12-31T01:56:20.133Z,90.34
2022-12-31T01:57:20.412Z,90.34
2022-12-31T01:58:20.695Z,90.34
2022-12-31T01:59:20.962Z,90.34
2022-12-31T02:00:21.273Z,90.34
2022-12-31T02:01:21.685Z,90.34
2022-12-31T02:02:21.925Z,90.34
2022-12-31T02:03:22.102Z,90.34
2022-12-31T02:04:22.382Z,90.34
2022-12-31T02:05:22.634Z,90.34
2022-12-31T02:06:22.912Z,90.34
2022-12-31T02:07:23.186Z,90.34
2022-12-31T02:08:23.433Z,90.34
2022-12-31T02:09:23.707Z,90.34
2022-12-31T02:10:23.990Z,90.34
2022-12-31T02:11:24.274Z,90.34
2022-12-31T02:12:24.527Z,90.34
2022-12-31T02:13:24.803Z,90.34
2022-12-31T02:14:25.085Z,90.34
2022-12-31T02:15:25.357Z,90.34
2022-12-31T02:16:25.708Z,90.44
2022-12-31T02:17:25.887Z,90.44
2022-12-31T02:18:26.149Z,90.44
2022-12-31T02:19:26.416Z,90.44
2022-12-31T02:20:26.732Z,90.44
2022-12-31T02:21:27.017Z,90.55
2022-12-31T02:22:27.288Z,90.55
2022-12-31T02:23:27.548Z,90.55
2022-12-31T02:24:27.869Z,90.44
2022-12-31T02:25:28.172Z,90.40
2022-12-31T02:26:28.479Z,90.40
2022-12-31T02:27:28.767Z,90.40
2022-12-31T02:28:29.043Z,90.30
2022-12-31T02:29:29.352Z,90.30
2022-12-31T02:30:29.711Z,90.20
2022-12-31T02:31:30.040Z,90.20
2022-12-31T02:32:30.206Z,90.20
2022-12-31T02:33:30.598Z,90.20
2022-12-31T02:34:30.805Z,90.20
2022-12-31T02:35:31.135Z,90.20
2022-12-31T02:36:31.561Z,90.09
2022-12-31T02:37:31.734Z,90.09
2022-12-31T02:38:32.077Z,89.99
2022-12-31T02:39:32.395Z,89.99
2022-12-31T02:40:32.684Z,89.99
2022-12-31T02:41:33.079Z,89.99
2022-12-31T02:42:33.314Z,89.99
2022-12-31T02:43:33.664Z,89.84
2022-12-31T02:44:34.079Z,89.84
2022-12-31T02:45:34.272Z,89.84
2022-12-31T02:46:34.692Z,89.95
2022-12-31T02:47:34.887Z,89.95
2022-12-31T02:48:35.232Z,89.95
2022-12-31T02:49:35.632Z,89.84
2022-12-31T02:50:35.845Z,89.84
2022-12-31T02:51:36.347Z,89.84
2022-12-31T02:52:36.538Z,89.84
2022-12-31T02:53:36.837Z,89.84
2022-12-31T02:54:37.115Z,89.84
2022-12-31T02:55:37.379Z,89.84
2022-12-31T02:56:37.692Z,89.84
2022-12-31T02:57:37.969Z,89.84
2022-12-31T02:58:38.234Z,89.84
2022-12-31T02:59:38.450Z,89.84
2022-12-31T03:00:38.821Z,89.84
2022-12-31T03:01:39.227Z,89.84
2022-12-31T03:02:39.365Z,89.84
2022-12-31T03:03:39.600Z,89.84
2022-12-31T03:04:39.873Z,89.84
2022-12-31T03:05:40.091Z,89.84
2022-12-31T03:06:40.442Z,89.84
2022-12-31T03:07:40.656Z,89.84
2022-12-31T03:08:40.999Z,89.95
2022-12-31T03:09:41.324Z,89.84
2022-12-31T03:10:41.641Z,89.95
2022-12-31T03:11:41.999Z,90.05
2022-12-31T03:12:42.238Z,90.05
2022-12-31T03:13:42.442Z,90.05
2022-12-31T03:14:42.764Z,90.05
2022-12-31T03:15:43.085Z,90.05
2022-12-31T03:16:43.472Z,90.05
2022-12-31T03:17:43.673Z,90.05
2022-12-31T03:18:44.010Z,90.16
2022-12-31T03:19:44.355Z,90.16
2022-12-31T03:20:44.729Z,90.05
2022-12-31T03:21:44.988Z,90.05
2022-12-31T03:22:45.193Z,90.05
2022-12-31T03:23:45.535Z,90.05
2022-12-31T03:24:45.913Z,90.05
2022-12-31T03:25:46.194Z,90.16
2022-12-31T03:26:46.424Z,90.16
2022-12-31T03:27:46.633Z,90.16
2022-12-31T03:28:46.978Z,90.16
2022-12-31T03:29:47.314Z,90.16
2022-12-31T03:30:47.649Z,90.16
2022-12-31T03:31:48.060Z,90.16
2022-12-31T03:32:48.292Z,90.16
2022-12-31T03:33:48.617Z,90.26
2022-12-31T03:34:48.966Z,90.22
2022-12-31T03:35:49.297Z,90.11
2022-12-31T03:36:49.667Z,90.22
2022-12-31T03:37:49.885Z,90.22
2022-12-31T03:38:52.868Z,90.26
2022-12-31T03:39:50.537Z,90.26
2022-12-31T03:40:50.908Z,90.36
2022-12-31T03:41:51.153Z,90.32
2022-12-31T03:42:51.385Z,90.36
2022-12-31T03:43:51.757Z,90.32
2022-12-31T03:44:51.970Z,90.36
2022-12-31T03:45:52.350Z,90.26
2022-12-31T03:46:52.701Z,90.16
2022-12-31T03:47:52.920Z,90.16
2022-12-31T03:48:53.264Z,90.16
2022-12-31T03:49:53.575Z,90.16
2022-12-31T03:50:53.912Z,90.16
2022-12-31T03:51:54.253Z,90.16
2022-12-31T03:52:54.620Z,90.16
2022-12-31T03:53:54.822Z,90.16
2022-12-31T03:54:55.203Z,90.16
2022-12-31T03:55:55.421Z,90.26
2022-12-31T03:57:00.047Z,90.26
2022-12-31T03:57:56.015Z,90.26
2022-12-31T03:58:56.270Z,90.36
2022-12-31T03:59:56.616Z,90.36
2022-12-31T04:00:57.017Z,90.46
2022-12-31T04:01:57.226Z,90.46
2022-12-31T04:02:57.500Z,90.46
2022-12-31T04:03:57.744Z,90.46
2022-12-31T04:04:58.079Z,90.46
2022-12-31T04:05:58.395Z,90.46
2022-12-31T04:06:58.734Z,90.56
2022-12-31T04:07:59.071Z,90.56
2022-12-31T04:08:59.405Z,90.56
2022-12-31T04:09:59.761Z,90.56
2022-12-31T04:10:59.958Z,90.56
2022-12-31T04:12:00.297Z,90.67
2022-12-31T04:13:00.649Z,90.67
2022-12-31T04:14:00.987Z,90.67
2022-12-31T04:15:01.307Z,90.67
2022-12-31T04:16:01.658Z,90.67
2022-12-31T04:17:01.917Z,90.77
2022-12-31T04:18:02.117Z,90.73
2022-12-31T04:19:02.498Z,90.73
2022-12-31T04:20:02.717Z,90.73
2022-12-31T04:21:03.051Z,90.73
2022-12-31T04:22:03.401Z,90.73
2022-12-31T04:23:03.627Z,90.73
2022-12-31T04:24:03.966Z,90.73
2022-12-31T04:25:04.330Z,90.62
2022-12-31T04:26:04.541Z,90.62
2022-12-31T04:27:07.817Z,90.62
2022-12-31T04:28:05.141Z,90.62
2022-12-31T04:29:05.524Z,90.62
2022-12-31T04:30:05.771Z,90.62
2022-12-31T04:31:06.078Z,90.62
2022-12-31T04:32:06.424Z,90.62
2022-12-31T04:33:06.652Z,90.62
2022-12-31T04:34:06.872Z,90.48
2022-12-31T04:35:07.105Z,90.52
2022-12-31T04:36:07.424Z,90.48
2022-12-31T04:37:07.804Z,90.48
2022-12-31T04:38:08.030Z,90.48
2022-12-31T04:39:08.390Z,90.48
2022-12-31T04:40:08.760Z,90.37
2022-12-31T04:41:08.895Z,90.48
2022-12-31T04:42:09.132Z,90.48
2022-12-31T04:43:09.359Z,90.48
2022-12-31T04:44:09.694Z,90.48
2022-12-31T04:45:10.072Z,90.48
2022-12-31T04:46:10.351Z,90.48
2022-12-31T04:47:10.588Z,90.48
2022-12-31T04:48:10.936Z,90.37
2022-12-31T04:49:11.180Z,90.48
2022-12-31T04:50:11.399Z,90.37
2022-12-31T04:51:11.689Z,90.48
2022-12-31T04:52:11.971Z,90.58
2022-12-31T04:53:12.201Z,90.58
2022-12-31T04:54:12.425Z,90.58
2022-12-31T04:55:12.770Z,90.69
2022-12-31T04:56:12.992Z,90.75
2022-12-31T04:57:13.389Z,90.75
2022-12-31T04:58:13.623Z,90.84
2022-12-31T04:59:13.888Z,90.95
2022-12-31T05:00:14.139Z,91.05
2022-12-31T05:01:14.524Z,91.16
2022-12-31T05:02:14.874Z,91.26
2022-12-31T05:03:15.037Z,91.26
2022-12-31T05:04:15.108Z,91.56
2022-12-31T05:05:15.443Z,91.67
2022-12-31T05:06:15.792Z,91.97
2022-12-31T05:07:16.218Z,92.08
2022-12-31T05:08:16.435Z,92.28
2022-12-31T05:09:16.782Z,92.28
2022-12-31T05:10:17.001Z,92.38
2022-12-31T05:11:17.386Z,92.49
2022-12-31T05:12:17.644Z,92.59
2022-12-31T05:13:17.862Z,92.69
2022-12-31T05:14:18.356Z,92.79
2022-12-31T05:15:18.534Z,92.79
2022-12-31T05:16:18.948Z,92.90
2022-12-31T05:17:19.189Z,93.00
2022-12-31T05:18:27.097Z,93.10
2022-12-31T05:19:19.681Z,93.20
2022-12-31T05:20:20.040Z,93.30
2022-12-31T05:21:20.303Z,93.41
2022-12-31T05:22:20.518Z,93.51
2022-12-31T05:23:20.745Z,93.62
2022-12-31T05:24:21.074Z,93.71
2022-12-31T05:25:21.432Z,93.71
2022-12-31T05:26:22.148Z,93.71
2022-12-31T05:27:22.195Z,93.71
2022-12-31T05:28:22.265Z,93.82
2022-12-31T05:29:22.512Z,93.92
2022-12-31T05:30:22.743Z,94.02
2022-12-31T05:31:22.993Z,94.12
2022-12-31T05:32:23.260Z,94.23
2022-12-31T05:33:23.532Z,94.23
2022-12-31T05:34:23.758Z,94.33
2022-12-31T05:35:23.986Z,94.33
2022-12-31T05:36:24.257Z,94.33
2022-12-31T05:37:24.481Z,94.43
2022-12-31T05:38:24.841Z,94.43
2022-12-31T05:39:25.049Z,94.43
2022-12-31T05:40:25.409Z,94.43
2022-12-31T05:41:25.608Z,94.43
2022-12-31T05:42:25.989Z,94.43
2022-12-31T05:43:26.209Z,94.43
2022-12-31T05:44:26.452Z,94.43
2022-12-31T05:45:30.727Z,94.43
2022-12-31T05:46:27.003Z,94.43
2022-12-31T05:47:27.252Z,94.43
2022-12-31T05:48:27.487Z,94.43
2022-12-31T05:49:27.842Z,94.43
2022-12-31T05:50:28.080Z,94.33
2022-12-31T05:51:28.425Z,94.33
2022-12-31T05:52:28.755Z,94.23
2022-12-31T05:53:29.082Z,94.23
2022-12-31T05:54:29.434Z,94.23
2022-12-31T05:55:29.679Z,94.33
2022-12-31T05:56:29.981Z,94.23
2022-12-31T05:57:30.331Z,94.23
2022-12-31T05:58:30.563Z,94.23
2022-12-31T05:59:30.766Z,94.23
2022-12-31T06:00:31.104Z,94.33
2022-12-31T06:01:31.484Z,94.33
2022-12-31T06:02:31.778Z,94.33
2022-12-31T06:03:32.068Z,94.33
2022-12-31T06:04:32.319Z,94.33
2022-12-31T06:05:32.538Z,94.43
2022-12-31T06:06:32.894Z,94.43
2022-12-31T06:07:33.135Z,94.43
2022-12-31T06:08:33.363Z,94.43
2022-12-31T06:09:33.711Z,94.43
2022-12-31T06:10:34.051Z,94.54
2022-12-31T06:11:34.385Z,94.54
2022-12-31T06:12:34.756Z,94.54
2022-12-31T06:13:34.964Z,94.54
2022-12-31T06:14:35.313Z,94.64
2022-12-31T06:15:35.590Z,94.64
2022-12-31T06:16:35.826Z,94.74
2022-12-31T06:17:36.192Z,94.84
2022-12-31T06:18:36.408Z,94.84
2022-12-31T06:19:36.750Z,94.84
2022-12-31T06:20:37.109Z,94.95
2022-12-31T06:21:37.331Z,94.95
2022-12-31T06:22:37.690Z,95.05
2022-12-31T06:23:37.890Z,95.15
2022-12-31T06:24:38.262Z,95.15
2022-12-31T06:25:38.481Z,95.25
2022-12-31T06:26:38.840Z,95.25
2022-12-31T06:27:39.111Z,95.25
2022-12-31T06:28:39.335Z,95.36
2022-12-31T06:29:39.702Z,95.46
2022-12-31T06:30:39.929Z,95.46
2022-12-31T06:31:40.287Z,95.46
2022-12-31T06:32:40.574Z,95.56
2022-12-31T06:33:40.805Z,95.56
2022-12-31T06:34:41.167Z,95.66
2022-12-31T06:35:41.396Z,95.66
2022-12-31T06:36:41.634Z,95.66
2022-12-31T06:37:41.889Z,95.76
2022-12-31T06:38:42.126Z,95.76
2022-12-31T06:39:42.361Z,95.76
2022-12-31T06:40:42.611Z,95.76
2022-12-31T06:41:42.846Z,95.87
2022-12-31T06:42:43.227Z,95.82
2022-12-31T06:43:44.044Z,95.82
2022-12-31T06:44:44.198Z,95.82
2022-12-31T06:45:43.980Z,95.82
2022-12-31T06:46:44.328Z,95.92
2022-12-31T06:47:44.589Z,95.92
2022-12-31T06:48:45.045Z,96.03
2022-12-31T06:49:45.245Z,96.03
2022-12-31T06:50:45.475Z,96.13
2022-12-31T06:51:45.729Z,96.13
2022-12-31T06:52:45.945Z,96.13
2022-12-31T06:53:46.164Z,96.23
2022-12-31T06:54:46.399Z,96.33
2022-12-31T06:55:46.627Z,96.33
2022-12-31T06:56:46.860Z,96.44
2022-12-31T06:57:47.112Z,96.44
2022-12-31T06:58:47.359Z,96.54
2022-12-31T06:59:47.608Z,96.54
2022-12-31T07:00:47.849Z,96.64
2022-12-31T07:01:48.164Z,96.64
2022-12-31T07:02:48.535Z,96.64
2022-12-31T07:03:48.645Z,96.64
2022-12-31T07:04:48.890Z,96.74
2022-12-31T07:05:49.120Z,96.74
2022-12-31T07:06:49.356Z,96.74
2022-12-31T07:07:49.731Z,96.74
2022-12-31T07:08:49.990Z,96.74
2022-12-31T07:09:50.717Z,96.84
2022-12-31T07:10:50.523Z,96.84
2022-12-31T07:11:50.768Z,96.84
2022-12-31T07:12:51.063Z,96.84
2022-12-31T07:13:51.287Z,96.84
2022-12-31T07:14:51.567Z,96.84
2022-12-31T07:15:51.874Z,96.95
2022-12-31T07:16:52.171Z,96.95
2022-12-31T07:17:52.444Z,96.91
2022-12-31T07:18:52.696Z,96.95
2022-12-31T07:19:57.521Z,96.95
2022-12-31T07:20:54.292Z,97.05
2022-12-31T07:21:53.606Z,97.11
2022-12-31T07:22:53.900Z,97.15
2022-12-31T07:23:54.165Z,97.11
2022-12-31T07:24:54.417Z,97.21
2022-12-31T07:25:54.690Z,97.21
2022-12-31T07:26:56.937Z,97.21
2022-12-31T07:27:55.291Z,97.31
2022-12-31T07:28:55.529Z,97.31
2022-12-31T07:29:55.789Z,97.41
2022-12-31T07:30:56.106Z,97.41
2022-12-31T07:31:56.341Z,97.41
2022-12-31T07:32:56.609Z,97.52
2022-12-31T07:33:56.873Z,97.52
2022-12-31T07:34:57.119Z,97.52
2022-12-31T07:35:57.391Z,97.62
2022-12-31T07:36:57.674Z,97.62
2022-12-31T07:37:57.931Z,97.62
2022-12-31T07:38:58.210Z,97.62
2022-12-31T07:39:58.486Z,97.62
2022-12-31T07:41:00.613Z,97.62
2022-12-31T07:42:00.003Z,97.62
2022-12-31T07:42:59.332Z,97.62
2022-12-31T07:43:59.634Z,97.62
2022-12-31T07:44:59.944Z,97.62
2022-12-31T07:46:00.253Z,97.62
2022-12-31T07:47:00.603Z,97.57
2022-12-31T07:48:03.045Z,97.57
2022-12-31T07:49:01.011Z,97.57
2022-12-31T07:50:01.252Z,97.67
2022-12-31T07:51:01.522Z,97.67
2022-12-31T07:52:01.803Z,97.67
2022-12-31T07:53:02.056Z,97.67
2022-12-31T07:54:02.294Z,97.67
2022-12-31T07:55:02.586Z,97.67
2022-12-31T07:56:03.384Z,97.67
2022-12-31T07:57:03.154Z,97.67
2022-12-31T07:58:03.393Z,97.67
2022-12-31T07:59:03.682Z,97.67
2022-12-31T08:00:03.960Z,97.67
2022-12-31T08:01:04.341Z,97.67
2022-12-31T08:02:04.728Z,97.67
2022-12-31T08:03:05.146Z,97.67
2022-12-31T08:04:05.230Z,97.67
2022-12-31T08:05:05.526Z,97.78
2022-12-31T08:06:05.778Z,97.67
2022-12-31T08:07:06.037Z,97.67
2022-12-31T08:08:06.339Z,97.67
2022-12-31T08:09:06.852Z,97.67
2022-12-31T08:10:09.107Z,97.67
2022-12-31T08:11:08.188Z,97.67
2022-12-31T08:12:07.477Z,97.67
2022-12-31T08:13:07.751Z,97.67
2022-12-31T08:14:08.009Z,97.63
2022-12-31T08:15:08.269Z,97.67
2022-12-31T08:16:08.548Z,97.63
2022-12-31T08:17:09.153Z,97.63
2022-12-31T08:18:09.442Z,97.74
2022-12-31T08:19:09.431Z,97.74
2022-12-31T08:20:09.640Z,97.74
2022-12-31T08:21:09.972Z,97.74
2022-12-31T08:22:10.276Z,97.74
2022-12-31T08:23:10.519Z,97.74
2022-12-31T08:24:10.776Z,97.74
2022-12-31T08:25:11.050Z,97.74
2022-12-31T08:26:11.437Z,97.74
2022-12-31T08:27:11.657Z,97.74
2022-12-31T08:28:12.214Z,97.74
2022-12-31T08:29:12.401Z,97.63
2022-12-31T08:30:12.935Z,97.63
2022-12-31T08:31:12.976Z,97.63
2022-12-31T08:32:13.741Z,97.63
2022-12-31T08:33:15.178Z,97.58
2022-12-31T08:34:14.014Z,97.63
2022-12-31T08:35:14.277Z,97.63
2022-12-31T08:36:14.599Z,97.49
2022-12-31T08:37:14.699Z,97.49
2022-12-31T08:38:15.055Z,97.49
2022-12-31T08:39:15.374Z,97.49
2022-12-31T08:40:15.466Z,97.49
2022-12-31T08:41:15.759Z,97.49
2022-12-31T08:42:16.155Z,97.42
2022-12-31T08:43:16.362Z,97.38
2022-12-31T08:44:16.585Z,97.49
2022-12-31T08:45:16.847Z,97.49
2022-12-31T08:46:17.219Z,97.49
2022-12-31T08:47:17.442Z,97.49
2022-12-31T08:48:17.539Z,97.49
2022-12-31T08:49:17.971Z,97.49
2022-12-31T08:50:18.135Z,97.49
2022-12-31T08:51:18.291Z,97.49
2022-12-31T08:52:18.602Z,97.58
2022-12-31T08:53:19.254Z,97.58
2022-12-31T08:54:19.374Z,97.49
2022-12-31T08:55:19.688Z,97.49
2022-12-31T08:56:19.748Z,97.49
2022-12-31T08:57:19.920Z,97.38
2022-12-31T08:58:20.171Z,97.49
2022-12-31T08:59:20.420Z,97.38
2022-12-31T09:00:20.688Z,97.38
2022-12-31T09:01:21.066Z,97.38
2022-12-31T09:02:21.604Z,97.38
2022-12-31T09:03:22.073Z,97.38
2022-12-31T09:04:22.190Z,97.38
2022-12-31T09:05:22.348Z,97.38
2022-12-31T09:06:23.123Z,97.38
2022-12-31T09:07:22.925Z,97.28
2022-12-31T09:08:23.183Z,97.38
2022-12-31T09:09:23.466Z,97.38
2022-12-31T09:10:23.850Z,97.38
2022-12-31T09:11:25.105Z,97.38
2022-12-31T09:12:24.418Z,97.38
2022-12-31T09:13:24.698Z,97.38
2022-12-31T09:14:25.048Z,97.38
2022-12-31T09:15:25.202Z,97.38
2022-12-31T09:16:25.512Z,97.33
2022-12-31T09:17:28.706Z,97.28
2022-12-31T09:18:32.845Z,97.28
2022-12-31T09:19:28.502Z,97.24
2022-12-31T09:20:36.378Z,97.24
2022-12-31T09:21:29.097Z,97.24
2022-12-31T09:22:27.283Z,97.24
2022-12-31T09:23:27.604Z,97.24
2022-12-31T09:24:27.989Z,97.24
2022-12-31T09:25:28.073Z,97.24
2022-12-31T09:26:28.696Z,97.24
2022-12-31T09:27:28.805Z,97.24
2022-12-31T09:28:29.485Z,97.24
2022-12-31T09:29:29.322Z,97.24
2022-12-31T09:30:29.603Z,97.24
2022-12-31T09:31:30.056Z,97.24
2022-12-31T09:32:30.194Z,97.24
2022-12-31T09:33:30.694Z,97.24
2022-12-31T09:34:30.910Z,97.24
2022-12-31T09:35:31.236Z,97.24
2022-12-31T09:36:31.342Z,97.24
2022-12-31T09:37:31.645Z,97.24
2022-12-31T09:38:32.051Z,97.24
2022-12-31T09:39:32.199Z,97.24
2022-12-31T09:40:32.482Z,97.24
2022-12-31T09:41:33.048Z,97.13
2022-12-31T09:42:33.049Z,97.13
2022-12-31T09:43:33.300Z,97.13
2022-12-31T09:44:33.596Z,97.03
2022-12-31T09:45:34.213Z,97.08
2022-12-31T09:46:34.151Z,96.98
2022-12-31T09:47:34.448Z,97.08
2022-12-31T09:48:34.947Z,97.08
2022-12-31T09:49:35.149Z,97.08
2022-12-31T09:50:35.571Z,97.08
2022-12-31T09:51:35.874Z,97.08
2022-12-31T09:52:38.312Z,97.08
2022-12-31T09:53:47.935Z,97.08
2022-12-31T09:54:36.613Z,96.98
2022-12-31T09:55:36.996Z,96.98
2022-12-31T09:56:37.779Z,96.98
2022-12-31T09:57:38.914Z,96.98
2022-12-31T09:58:37.650Z,97.08
2022-12-31T09:59:38.101Z,97.08
2022-12-31T10:00:38.151Z,96.98
2022-12-31T10:01:38.649Z,97.08
2022-12-31T10:02:38.790Z,97.08
2022-12-31T10:03:39.021Z,96.98
2022-12-31T10:04:39.773Z,96.98
2022-12-31T10:05:39.932Z,97.08
2022-12-31T10:06:39.825Z,97.08
2022-12-31T10:07:40.085Z,97.08
2022-12-31T10:08:40.391Z,97.08
2022-12-31T10:09:40.691Z,97.08
2022-12-31T10:10:40.975Z,97.08
2022-12-31T10:11:41.271Z,97.08
2022-12-31T10:12:41.545Z,97.08
2022-12-31T10:13:41.872Z,97.08
2022-12-31T10:14:47.172Z,97.08
2022-12-31T10:15:43.481Z,97.08
2022-12-31T10:16:42.893Z,97.04
2022-12-31T10:17:43.029Z,97.14
2022-12-31T10:18:43.353Z,97.04
2022-12-31T10:19:43.675Z,97.04
2022-12-31T10:20:45.572Z,97.04
2022-12-31T10:21:44.262Z,97.04
2022-12-31T10:22:44.520Z,97.04
2022-12-31T10:23:44.822Z,97.04
2022-12-31T10:24:45.082Z,97.04
2022-12-31T10:25:45.384Z,97.04
2022-12-31T10:26:51.345Z,97.04
2022-12-31T10:27:46.990Z,97.14
2022-12-31T10:28:46.333Z,97.04
2022-12-31T10:29:46.599Z,97.14
2022-12-31T10:30:46.925Z,97.14
2022-12-31T10:31:47.578Z,97.04
2022-12-31T10:32:47.559Z,97.04
2022-12-31T10:33:48.586Z,97.04
2022-12-31T10:34:48.169Z,97.04
2022-12-31T10:35:48.433Z,97.04
2022-12-31T10:36:48.705Z,97.14
2022-12-31T10:37:48.974Z,97.09
2022-12-31T10:38:49.259Z,97.09
2022-12-31T10:39:49.535Z,97.00
2022-12-31T10:40:49.831Z,97.09
2022-12-31T10:41:50.109Z,97.09
2022-12-31T10:42:50.396Z,97.09
2022-12-31T10:43:50.654Z,97.09
2022-12-31T10:44:50.957Z,97.09
2022-12-31T10:45:51.238Z,97.20
2022-12-31T10:46:52.528Z,97.09
2022-12-31T10:47:51.850Z,97.09
2022-12-31T10:48:52.898Z,97.20
2022-12-31T10:49:52.457Z,97.09
2022-12-31T10:50:52.720Z,97.09
2022-12-31T10:51:53.021Z,97.20
2022-12-31T10:52:53.296Z,97.09
2022-12-31T10:53:53.682Z,97.09
2022-12-31T10:54:53.800Z,97.09
2022-12-31T10:55:54.075Z,97.09
2022-12-31T10:56:54.340Z,97.09
2022-12-31T10:57:58.720Z,97.05
2022-12-31T10:58:55.867Z,97.09
2022-12-31T10:59:55.193Z,97.05
2022-12-31T11:00:55.463Z,97.05
2022-12-31T11:01:55.795Z,97.05
2022-12-31T11:02:56.035Z,97.16
2022-12-31T11:03:56.264Z,97.16
2022-12-31T11:04:56.550Z,97.25
2022-12-31T11:05:56.823Z,97.36
2022-12-31T11:06:57.084Z,97.36
2022-12-31T11:07:57.457Z,97.25
2022-12-31T11:08:57.711Z,97.25
2022-12-31T11:09:58.125Z,97.25
2022-12-31T11:10:58.211Z,97.25
2022-12-31T11:11:58.517Z,97.25
2022-12-31T11:12:58.835Z,97.00
2022-12-31T11:13:59.149Z,97.00
2022-12-31T11:14:59.435Z,97.00
2022-12-31T11:16:00.667Z,97.11
2022-12-31T11:17:00.014Z,97.00
2022-12-31T11:18:00.298Z,97.00
2022-12-31T11:19:00.590Z,96.80
2022-12-31T11:20:00.909Z,96.80
2022-12-31T11:21:01.255Z,96.80
2022-12-31T11:22:01.515Z,96.80
2022-12-31T11:23:01.842Z,96.80
2022-12-31T11:24:02.474Z,96.76
2022-12-31T11:25:02.411Z,96.76
2022-12-31T11:26:02.678Z,96.76
2022-12-31T11:27:02.974Z,96.86
2022-12-31T11:28:03.352Z,96.86
2022-12-31T11:29:03.611Z,96.66
2022-12-31T11:30:03.796Z,96.76
2022-12-31T11:31:04.130Z,96.66
2022-12-31T11:32:04.403Z,96.61
2022-12-31T11:33:04.686Z,96.71
2022-12-31T11:34:04.974Z,96.41
2022-12-31T11:35:05.264Z,96.41
2022-12-31T11:38:27.316Z,96.51
2022-12-31T11:39:31.105Z,96.51
2022-12-31T11:40:27.747Z,96.41
2022-12-31T11:41:28.176Z,96.51
2022-12-31T11:42:28.019Z,96.51
2022-12-31T11:43:28.512Z,96.30
2022-12-31T11:44:28.543Z,96.20
2022-12-31T11:45:28.981Z,96.20
2022-12-31T11:46:29.852Z,96.30
2022-12-31T11:47:30.148Z,96.30
2022-12-31T11:48:31.256Z,96.30
2022-12-31T11:49:30.145Z,96.30
2022-12-31T11:50:30.326Z,96.41
2022-12-31T11:51:30.661Z,96.30
2022-12-31T11:52:30.845Z,96.30
2022-12-31T11:53:31.117Z,96.30
2022-12-31T11:54:31.387Z,96.41
2022-12-31T11:55:31.822Z,96.41
2022-12-31T11:56:32.186Z,96.41
2022-12-31T11:57:32.214Z,96.41
2022-12-31T11:58:32.511Z,96.30
2022-12-31T11:59:32.788Z,96.30
2022-12-31T12:00:33.049Z,96.30
2022-12-31T12:01:33.353Z,96.30
2022-12-31T12:02:33.702Z,96.30
2022-12-31T12:03:33.900Z,96.30
2022-12-31T12:04:34.208Z,96.30
2022-12-31T12:05:34.480Z,96.41
2022-12-31T12:06:34.789Z,96.41
2022-12-31T12:07:35.060Z,96.51
2022-12-31T12:08:35.367Z,96.51
2022-12-31T12:09:35.671Z,96.51
2022-12-31T12:10:36.923Z,96.51
2022-12-31T12:11:36.268Z,96.51
2022-12-31T12:12:36.522Z,96.41
2022-12-31T12:13:36.816Z,96.41
2022-12-31T12:14:37.746Z,96.41
2022-12-31T12:15:37.506Z,96.51
2022-12-31T12:16:38.082Z,96.51
2022-12-31T12:17:38.033Z,96.51
2022-12-31T12:18:38.346Z,96.61
2022-12-31T12:19:38.640Z,96.51
2022-12-31T12:20:39.031Z,96.61
2022-12-31T12:21:39.274Z,96.61
2022-12-31T12:22:39.806Z,96.61
2022-12-31T12:23:39.825Z,96.61
2022-12-31T12:24:40.135Z,96.71
2022-12-31T12:25:40.508Z,96.71
2022-12-31T12:26:40.707Z,96.71
2022-12-31T12:27:41.017Z,96.71
2022-12-31T12:28:44.287Z,96.71
2022-12-31T12:29:41.649Z,96.71
2022-12-31T12:30:41.809Z,96.71
2022-12-31T12:31:42.904Z,96.71
2022-12-31T12:32:42.398Z,96.71
2022-12-31T12:33:43.109Z,96.71
2022-12-31T12:34:49.116Z,96.71
2022-12-31T12:35:44.401Z,96.71
2022-12-31T12:36:43.469Z,96.71
2022-12-31T12:37:43.855Z,96.71
2022-12-31T12:38:44.018Z,96.71
2022-12-31T12:39:44.296Z,96.71
2022-12-31T12:40:44.613Z,96.71
2022-12-31T12:41:44.881Z,96.71
2022-12-31T12:42:45.168Z,96.71
2022-12-31T12:43:46.002Z,96.71
2022-12-31T12:44:46.140Z,96.71
2022-12-31T12:45:51.199Z,96.71
2022-12-31T12:46:48.508Z,96.71
2022-12-31T12:47:46.830Z,96.71
2022-12-31T12:48:46.945Z,96.71
2022-12-31T12:49:47.286Z,96.71
2022-12-31T12:50:47.563Z,96.81
2022-12-31T12:51:47.911Z,96.81
2022-12-31T12:52:48.161Z,96.81
2022-12-31T12:53:48.474Z,96.81
2022-12-31T12:54:48.824Z,96.81
2022-12-31T12:55:48.985Z,96.81
2022-12-31T12:56:49.374Z,96.81
2022-12-31T12:57:49.547Z,96.81
2022-12-31T12:58:49.836Z,96.81